createdAt,value
2018-04-11T00:00:28.935Z,82.83
2018-04-11T00:02:22.450Z,82.83
2018-04-11T00:03:22.495Z,83.03
2018-04-11T00:05:15.497Z,82.93
2018-04-11T00:06:15.549Z,82.83
2018-04-11T00:08:08.562Z,83.50
2018-04-11T00:09:08.607Z,82.83
2018-04-11T00:11:01.643Z,83.31
2018-04-11T00:12:01.654Z,83.50
2018-04-11T00:13:54.676Z,83.98
2018-04-11T00:14:54.706Z,83.79
2018-04-11T00:16:47.717Z,83.79
2018-04-11T00:17:47.763Z,84.17
2018-04-11T00:19:40.752Z,83.98
2018-04-11T00:20:40.811Z,84.08
2018-04-11T00:22:33.821Z,84.17
2018-04-11T00:23:33.864Z,84.08
2018-04-11T00:25:26.858Z,84.08
2018-04-11T00:26:26.925Z,84.08
2018-04-11T00:28:19.924Z,84.17
2018-04-11T00:29:19.967Z,84.75
2018-04-11T00:31:12.957Z,84.75
2018-04-11T00:32:13.017Z,84.75
2018-04-11T00:34:06.024Z,84.94
2018-04-11T00:35:06.068Z,84.84
2018-04-11T00:36:59.071Z,84.80
2018-04-11T00:37:59.114Z,84.61
2018-04-11T00:39:52.106Z,85.09
2018-04-11T00:40:52.179Z,85.18
2018-04-11T00:42:45.172Z,85.47
2018-04-11T00:43:45.214Z,85.28
2018-04-11T00:45:38.207Z,85.57
2018-04-11T00:46:38.266Z,85.75
2018-04-11T00:48:31.274Z,86.14
2018-04-11T00:49:31.317Z,86.04
2018-04-11T00:51:24.309Z,85.75
2018-04-11T00:52:24.371Z,85.66
2018-04-11T00:54:17.377Z,86.33
2018-04-11T00:55:17.423Z,86.43
2018-04-11T00:57:10.441Z,86.33
2018-04-11T00:58:10.470Z,86.43
2018-04-11T01:00:03.465Z,86.33
2018-04-11T01:01:03.522Z,86.61
2018-04-11T01:02:56.533Z,86.71
2018-04-11T01:03:56.577Z,86.52
2018-04-11T01:05:49.567Z,86.71
2018-04-11T01:06:49.632Z,86.57
2018-04-11T01:08:42.639Z,86.86
2018-04-11T01:09:42.681Z,87.05
2018-04-11T01:11:35.672Z,87.34
2018-04-11T01:12:35.729Z,86.67
2018-04-11T01:14:28.737Z,86.96
2018-04-11T01:15:28.781Z,87.15
2018-04-11T01:17:21.792Z,87.62
2018-04-11T01:18:21.852Z,87.05
2018-04-11T01:20:14.828Z,87.34
2018-04-11T01:21:14.882Z,87.43
2018-04-11T01:23:07.889Z,87.24
2018-04-11T01:24:07.930Z,87.15
2018-04-11T01:26:00.917Z,87.72
2018-04-11T01:27:00.980Z,88.01
2018-04-11T01:28:53.985Z,87.05
2018-04-11T01:29:54.029Z,87.72
2018-04-11T01:31:47.022Z,87.91
2018-04-11T01:32:47.080Z,87.82
2018-04-11T01:34:40.093Z,87.72
2018-04-11T01:35:40.137Z,87.43
2018-04-11T01:37:33.146Z,87.72
2018-04-11T01:38:33.187Z,87.91
2018-04-11T01:40:26.180Z,87.96
2018-04-11T01:41:26.521Z,87.77
2018-04-11T01:43:19.246Z,88.06
2018-04-11T01:44:19.288Z,88.25
2018-04-11T01:46:12.280Z,88.34
2018-04-11T01:47:12.338Z,87.96
2018-04-11T01:49:05.348Z,88.34
2018-04-11T01:50:05.392Z,88.44
2018-04-11T01:51:58.383Z,88.54
2018-04-11T01:52:58.446Z,88.44
2018-04-11T01:54:51.451Z,88.73
2018-04-11T01:55:51.493Z,88.44
2018-04-11T01:57:44.505Z,87.87
2018-04-11T01:58:44.548Z,88.25
2018-04-11T02:00:37.540Z,88.06
2018-04-11T02:01:37.598Z,88.44
2018-04-11T02:03:30.605Z,88.30
2018-04-11T02:04:30.648Z,88.40
2018-04-11T02:06:23.648Z,88.78
2018-04-11T02:07:23.697Z,88.40
2018-04-11T02:09:16.704Z,88.97
2018-04-11T02:10:16.743Z,88.30
2018-04-11T02:12:09.735Z,88.87
2018-04-11T02:13:09.791Z,89.06
2018-04-11T02:15:02.800Z,88.49
2018-04-11T02:16:02.839Z,88.40
2018-04-11T02:17:55.843Z,88.30
2018-04-11T02:18:55.889Z,88.97
2018-04-11T02:20:48.884Z,88.97
2018-04-11T02:21:48.937Z,89.25
2018-04-11T02:23:41.942Z,89.25
2018-04-11T02:24:41.984Z,89.16
2018-04-11T02:26:34.974Z,89.35
2018-04-11T02:27:35.033Z,88.87
2018-04-11T02:29:28.041Z,89.16
2018-04-11T02:30:28.082Z,89.35
2018-04-11T02:32:21.074Z,89.06
2018-04-11T02:33:21.133Z,88.87
2018-04-11T02:35:14.142Z,88.78
2018-04-11T02:36:14.190Z,88.78
2018-04-11T02:38:07.190Z,88.68
2018-04-11T02:39:07.232Z,89.25
2018-04-11T02:41:00.216Z,88.87
2018-04-11T02:42:00.278Z,88.59
2018-04-11T02:43:53.289Z,88.97
2018-04-11T02:44:53.375Z,88.87
2018-04-11T02:46:46.311Z,88.20
2018-04-11T02:47:46.375Z,88.97
2018-04-11T02:49:39.377Z,88.78
2018-04-11T02:50:39.418Z,88.40
2018-04-11T02:52:32.409Z,88.11
2018-04-11T02:53:32.468Z,88.45
2018-04-11T02:55:25.475Z,88.07
2018-04-11T02:56:25.517Z,88.64
2018-04-11T02:58:18.523Z,88.64
2018-04-11T02:59:18.563Z,88.35
2018-04-11T03:01:11.553Z,89.25
2018-04-11T03:02:11.617Z,89.16
2018-04-11T03:04:04.618Z,89.45
2018-04-11T03:05:04.661Z,89.21
2018-04-11T03:06:57.654Z,89.45
2018-04-11T03:07:57.706Z,89.31
2018-04-11T03:09:50.712Z,89.78
2018-04-11T03:10:50.773Z,89.88
2018-04-11T03:12:43.745Z,89.78
2018-04-11T03:13:43.802Z,89.78
2018-04-11T03:15:36.807Z,89.97
2018-04-11T03:16:36.848Z,89.59
2018-04-11T03:18:29.856Z,89.78
2018-04-11T03:19:29.894Z,89.69
2018-04-11T03:21:22.879Z,89.21
2018-04-11T03:22:22.940Z,89.12
2018-04-11T03:24:15.945Z,89.40
2018-04-11T03:25:15.986Z,89.40
2018-04-11T03:27:08.977Z,89.40
2018-04-11T03:28:09.039Z,88.83
2018-04-11T03:30:02.048Z,88.73
2018-04-11T03:31:02.089Z,89.12
2018-04-11T03:32:55.076Z,89.12
2018-04-11T03:33:55.154Z,89.02
2018-04-11T03:35:48.140Z,89.12
2018-04-11T03:36:48.181Z,88.83
2018-04-11T03:38:41.188Z,88.92
2018-04-11T03:39:41.229Z,89.12
2018-04-11T03:41:34.220Z,88.40
2018-04-11T03:42:34.276Z,88.40
2018-04-11T03:44:27.284Z,88.40
2018-04-11T03:45:27.325Z,88.40
2018-04-11T03:47:20.311Z,88.88
2018-04-11T03:48:20.370Z,88.21
2018-04-11T03:50:13.378Z,88.31
2018-04-11T03:51:13.420Z,88.21
2018-04-11T03:53:06.408Z,88.31
2018-04-11T03:54:06.469Z,88.40
2018-04-11T03:55:59.477Z,88.12
2018-04-11T03:56:59.512Z,88.78
2018-04-11T03:58:52.519Z,88.31
2018-04-11T03:59:52.559Z,88.98
2018-04-11T04:01:45.548Z,88.21
2018-04-11T04:02:45.671Z,88.78
2018-04-11T04:04:38.612Z,88.50
2018-04-11T04:05:38.653Z,88.31
2018-04-11T04:07:31.642Z,88.21
2018-04-11T04:08:31.701Z,89.07
2018-04-11T04:10:24.705Z,88.88
2018-04-11T04:11:24.770Z,88.12
2018-04-11T04:13:17.746Z,88.21
2018-04-11T04:14:17.792Z,88.40
2018-04-11T04:16:10.799Z,88.40
2018-04-11T04:17:10.841Z,88.12
2018-04-11T04:19:03.855Z,88.50
2018-04-11T04:20:03.897Z,88.21
2018-04-11T04:21:56.886Z,88.31
2018-04-11T04:22:56.950Z,88.50
2018-04-11T04:24:49.952Z,88.59
2018-04-11T04:25:50.007Z,88.50
2018-04-11T04:27:42.983Z,88.59
2018-04-11T04:28:43.053Z,88.59
2018-04-11T04:30:36.058Z,88.40
2018-04-11T04:31:36.101Z,88.21
2018-04-11T04:33:29.105Z,89.07
2018-04-11T04:34:29.155Z,88.50
2018-04-11T04:36:22.162Z,88.50
2018-04-11T04:37:22.203Z,88.21
2018-04-11T04:39:15.208Z,88.50
2018-04-11T04:40:15.252Z,88.40
2018-04-11T04:42:08.237Z,88.21
2018-04-11T04:43:08.294Z,88.40
2018-04-11T04:45:01.308Z,88.59
2018-04-11T04:46:01.349Z,88.17
2018-04-11T04:47:54.339Z,88.17
2018-04-11T04:48:54.400Z,88.17
2018-04-11T04:50:47.405Z,88.17
2018-04-11T04:51:47.447Z,88.45
2018-04-11T04:53:40.439Z,88.36
2018-04-11T04:54:40.495Z,88.07
2018-04-11T04:56:33.510Z,88.07
2018-04-11T04:57:33.554Z,88.26
2018-04-11T04:59:26.561Z,88.55
2018-04-11T05:00:26.597Z,88.17
2018-04-11T05:02:19.588Z,88.36
2018-04-11T05:03:19.648Z,88.17
2018-04-11T05:05:12.654Z,88.26
2018-04-11T05:06:12.696Z,88.17
2018-04-11T05:08:05.684Z,88.07
2018-04-11T05:09:05.744Z,88.17
2018-04-11T05:10:58.755Z,88.36
2018-04-11T05:11:58.798Z,88.17
2018-04-11T05:13:51.786Z,88.17
2018-04-11T05:14:51.848Z,88.26
2018-04-11T05:16:44.866Z,88.07
2018-04-11T05:17:44.896Z,88.26
2018-04-11T05:19:37.904Z,87.79
2018-04-11T05:20:37.944Z,87.98
2018-04-11T05:22:30.932Z,88.36
2018-04-11T05:23:30.991Z,88.07
2018-04-11T05:25:24.003Z,88.45
2018-04-11T05:26:24.044Z,87.98
2018-04-11T05:28:17.033Z,88.64
2018-04-11T05:29:17.097Z,88.74
2018-04-11T05:31:10.102Z,88.93
2018-04-11T05:32:10.143Z,88.36
2018-04-11T05:34:03.130Z,88.07
2018-04-11T05:35:03.189Z,88.84
2018-04-11T05:36:56.196Z,88.93
2018-04-11T05:37:56.240Z,88.93
2018-04-11T05:39:49.242Z,88.40
2018-04-11T05:40:49.283Z,88.12
2018-04-11T05:42:42.267Z,87.83
2018-04-11T05:43:42.327Z,88.21
2018-04-11T05:45:35.338Z,87.74
2018-04-11T05:46:35.380Z,87.93
2018-04-11T05:48:28.368Z,87.83
2018-04-11T05:49:28.431Z,87.64
2018-04-11T05:51:21.436Z,87.83
2018-04-11T05:52:21.477Z,87.54
2018-04-11T05:54:14.468Z,86.88
2018-04-11T05:55:14.525Z,87.16
2018-04-11T05:57:07.548Z,87.35
2018-04-11T05:58:07.588Z,87.07
2018-04-11T06:00:00.596Z,86.98
2018-04-11T06:01:00.638Z,86.98
2018-04-11T06:02:53.636Z,86.40
2018-04-11T06:03:53.716Z,86.02
2018-04-11T06:05:46.702Z,86.98
2018-04-11T06:06:46.745Z,86.40
2018-04-11T06:08:39.736Z,86.54
2018-04-11T06:09:39.799Z,86.54
2018-04-11T06:11:32.803Z,86.06
2018-04-11T06:12:32.843Z,85.35
2018-04-11T06:14:25.832Z,85.93
2018-04-11T06:15:25.893Z,86.11
2018-04-11T06:17:18.905Z,85.93
2018-04-11T06:18:18.944Z,86.21
2018-04-11T06:20:11.951Z,86.54
2018-04-11T06:21:11.994Z,86.25
2018-04-11T06:23:05.040Z,86.39
2018-04-11T06:24:05.042Z,86.20
2018-04-11T06:25:58.047Z,85.48
2018-04-11T06:26:58.089Z,85.58
2018-04-11T06:28:51.078Z,85.42
2018-04-11T06:29:51.136Z,85.24
2018-04-11T06:31:44.153Z,85.28
2018-04-11T06:32:44.192Z,85.28
2018-04-11T06:34:37.180Z,84.98
2018-04-11T06:35:37.243Z,84.79
2018-04-11T06:37:30.255Z,84.12
2018-04-11T06:38:30.298Z,84.16
2018-04-11T06:40:23.823Z,83.49
2018-04-11T06:41:23.865Z,82.97
2018-04-11T06:43:16.851Z,83.49
2018-04-11T06:44:16.913Z,83.15
2018-04-11T06:46:09.958Z,82.43
2018-04-11T06:47:09.965Z,83.01
2018-04-11T06:49:02.957Z,82.63
2018-04-11T06:50:03.018Z,83.25
2018-04-11T06:51:56.037Z,82.53
2018-04-11T06:52:56.077Z,82.76
2018-04-11T06:54:49.070Z,82.38
2018-04-11T06:55:49.134Z,82.67
2018-04-11T06:57:42.148Z,83.00
2018-04-11T06:58:42.192Z,82.46
2018-04-11T07:00:35.213Z,81.64
2018-04-11T07:01:35.257Z,81.64
2018-04-11T07:03:28.250Z,80.28
2018-04-11T07:04:28.320Z,77.01
2018-04-11T07:06:21.331Z,74.69
2018-04-11T07:07:21.372Z,72.34
2018-04-11T07:09:14.373Z,72.64
2018-04-11T07:10:14.437Z,73.50
2018-04-11T07:12:07.457Z,68.96
2018-04-11T07:13:07.503Z,67.51
2018-04-11T07:15:00.508Z,72.25
2018-04-11T07:16:00.575Z,73.11
2018-04-11T07:17:53.602Z,65.66
2018-04-11T07:18:53.649Z,63.38
2018-04-11T07:20:46.677Z,58.91
2018-04-11T07:21:46.715Z,57.52
2018-04-11T07:23:39.713Z,54.75
2018-04-11T07:24:39.782Z,54.49
2018-04-11T07:26:32.800Z,53.13
2018-04-11T07:27:32.860Z,53.61
2018-04-11T07:29:25.851Z,60.04
2018-04-11T07:30:25.916Z,59.72
2018-04-11T07:32:18.943Z,55.88
2018-04-11T07:33:18.989Z,54.27
2018-04-11T07:35:11.996Z,51.59
2018-04-11T07:36:12.065Z,51.42
2018-04-11T07:38:05.089Z,49.73
2018-04-11T07:39:05.136Z,49.73
2018-04-11T07:40:58.161Z,48.97
2018-04-11T07:41:58.210Z,48.37
2018-04-11T07:43:51.217Z,50.57
2018-04-11T07:44:51.286Z,49.54
2018-04-11T07:46:44.315Z,51.95
2018-04-11T07:47:44.367Z,52.76
2018-04-11T07:49:37.373Z,55.54
2018-04-11T07:50:37.443Z,54.88
2018-04-11T07:52:30.470Z,55.24
2018-04-11T07:53:30.520Z,55.63
2018-04-11T07:55:23.537Z,54.62
2018-04-11T07:56:23.603Z,53.49
2018-04-11T07:58:16.629Z,53.39
2018-04-11T07:59:16.687Z,52.98
2018-04-11T08:01:09.712Z,53.15
2018-04-11T08:02:09.765Z,54.66
2018-04-11T08:04:02.771Z,54.86
2018-04-11T08:05:02.842Z,55.70
2018-04-11T08:06:55.874Z,55.92
2018-04-11T08:07:55.927Z,54.72
2018-04-11T08:09:48.941Z,52.36
2018-04-11T08:10:49.005Z,51.97
2018-04-11T08:12:42.031Z,53.66
2018-04-11T08:13:42.083Z,53.59
2018-04-11T08:15:35.098Z,51.51
2018-04-11T08:16:35.171Z,49.70
2018-04-11T08:18:28.205Z,48.66
2018-04-11T08:19:28.256Z,49.77
2018-04-11T08:21:21.286Z,48.54
2018-04-11T08:22:21.337Z,47.52
2018-04-11T08:24:14.346Z,47.81
2018-04-11T08:25:14.419Z,48.11
2018-04-11T08:27:07.455Z,46.72
2018-04-11T08:28:07.511Z,45.61
2018-04-11T08:30:00.522Z,46.53
2018-04-11T08:31:00.595Z,45.37
2018-04-11T08:32:53.631Z,46.77
2018-04-11T08:33:53.684Z,46.62
2018-04-11T08:35:46.702Z,45.75
2018-04-11T08:36:46.773Z,46.56
2018-04-11T08:38:39.807Z,46.80
2018-04-11T08:39:39.862Z,46.48
2018-04-11T08:41:32.893Z,46.41
2018-04-11T08:42:32.947Z,46.25
2018-04-11T08:44:25.960Z,48.08
2018-04-11T08:45:26.037Z,48.61
2018-04-11T08:47:19.116Z,48.18
2018-04-11T08:48:19.128Z,48.27
2018-04-11T08:50:12.142Z,47.16
2018-04-11T08:51:12.213Z,47.69
2018-04-11T08:53:05.253Z,48.76
2018-04-11T08:54:05.308Z,47.43
2018-04-11T08:55:58.325Z,47.43
2018-04-11T08:56:58.397Z,46.89
2018-04-11T08:58:51.429Z,45.83
2018-04-11T08:59:51.485Z,45.83
2018-04-11T09:01:44.520Z,47.14
2018-04-11T09:02:44.575Z,47.11
2018-04-11T09:04:37.590Z,48.90
2018-04-11T09:05:37.664Z,48.08
2018-04-11T09:07:30.695Z,46.97
2018-04-11T09:08:30.755Z,46.77
2018-04-11T09:10:23.763Z,47.24
2018-04-11T09:11:23.838Z,49.00
2018-04-11T09:13:16.875Z,53.80
2018-04-11T09:14:16.929Z,55.87
2018-04-11T09:16:09.945Z,59.78
2018-04-11T09:17:10.014Z,60.46
2018-04-11T09:19:03.063Z,63.48
2018-04-11T09:20:03.097Z,65.37
2018-04-11T09:21:56.122Z,69.37
2018-04-11T09:22:56.174Z,69.85
2018-04-11T09:24:49.179Z,73.44
2018-04-11T09:25:49.249Z,72.67
2018-04-11T09:27:42.275Z,73.19
2018-04-11T09:28:42.323Z,71.81
2018-04-11T09:30:35.342Z,69.75
2018-04-11T09:31:35.395Z,69.85
2018-04-11T09:33:28.417Z,72.09
2018-04-11T09:34:28.466Z,71.52
2018-04-11T09:36:21.467Z,71.58
2018-04-11T09:37:21.534Z,70.62
2018-04-11T09:39:14.556Z,74.13
2018-04-11T09:40:14.605Z,75.10
2018-04-11T09:42:07.622Z,73.37
2018-04-11T09:43:07.670Z,71.87
2018-04-11T09:45:00.676Z,72.38
2018-04-11T09:46:00.742Z,69.50
2018-04-11T09:47:53.770Z,67.68
2018-04-11T09:48:53.813Z,69.21
2018-04-11T09:50:46.813Z,68.06
2018-04-11T09:51:46.879Z,68.63
2018-04-11T09:53:39.906Z,69.31
2018-04-11T09:54:39.952Z,67.68
2018-04-11T09:56:32.958Z,68.63
2018-04-11T09:57:33.026Z,67.29
2018-04-11T09:59:26.048Z,70.40
2018-04-11T10:00:26.113Z,69.02
2018-04-11T10:02:19.114Z,71.55
2018-04-11T10:03:19.161Z,73.08
2018-04-11T10:05:12.159Z,73.75
2018-04-11T10:06:12.226Z,73.66
2018-04-11T10:08:05.282Z,72.29
2018-04-11T10:09:05.294Z,71.91
2018-04-11T10:10:58.296Z,67.96
2018-04-11T10:11:58.362Z,67.86
2018-04-11T10:13:51.383Z,70.50
2018-04-11T10:14:51.429Z,70.40
2018-04-11T10:16:44.428Z,69.89
2018-04-11T10:17:44.496Z,68.92
2018-04-11T10:19:37.516Z,71.75
2018-04-11T10:20:37.569Z,69.06
2018-04-11T10:22:30.581Z,70.50
2018-04-11T10:23:30.628Z,70.40
2018-04-11T10:25:23.626Z,70.98
2018-04-11T10:26:23.694Z,69.06
2018-04-11T10:28:16.717Z,67.83
2018-04-11T10:29:16.762Z,67.93
2018-04-11T10:31:09.760Z,67.26
2018-04-11T10:32:09.826Z,67.90
2018-04-11T10:34:02.843Z,67.45
2018-04-11T10:35:02.893Z,68.26
2018-04-11T10:36:55.888Z,68.41
2018-04-11T10:37:55.954Z,69.76
2018-04-11T10:39:49.018Z,67.74
2018-04-11T10:40:49.018Z,66.01
2018-04-11T10:42:42.041Z,67.42
2018-04-11T10:43:42.085Z,68.57
2018-04-11T10:45:35.091Z,68.73
2018-04-11T10:46:35.156Z,70.40
2018-04-11T10:48:28.184Z,70.88
2018-04-11T10:49:28.226Z,70.59
2018-04-11T10:51:21.224Z,68.96
2018-04-11T10:52:21.290Z,68.96
2018-04-11T10:54:14.318Z,71.78
2018-04-11T10:55:14.365Z,69.82
2018-04-11T10:57:07.365Z,69.50
2018-04-11T10:58:07.431Z,70.56
2018-04-11T11:00:00.449Z,71.67
2018-04-11T11:01:00.493Z,73.11
2018-04-11T11:02:53.515Z,72.44
2018-04-11T11:03:53.563Z,72.06
2018-04-11T11:05:46.558Z,73.35
2018-04-11T11:06:46.625Z,72.96
2018-04-11T11:08:39.644Z,73.06
2018-04-11T11:09:39.688Z,71.55
2018-04-11T11:11:32.689Z,70.21
2018-04-11T11:12:32.748Z,71.08
2018-04-11T11:14:25.768Z,69.34
2018-04-11T11:15:25.816Z,70.98
2018-04-11T11:17:18.814Z,70.82
2018-04-11T11:18:18.883Z,69.28
2018-04-11T11:20:11.901Z,69.28
2018-04-11T11:21:11.946Z,66.58
2018-04-11T11:23:04.969Z,67.80
2018-04-11T11:24:05.017Z,68.29
2018-04-11T11:25:58.043Z,68.80
2018-04-11T11:26:58.090Z,69.38
2018-04-11T11:28:51.113Z,69.15
2018-04-11T11:29:51.157Z,68.90
2018-04-11T11:31:44.155Z,68.51
2018-04-11T11:32:44.218Z,68.41
2018-04-11T11:34:37.239Z,68.76
2018-04-11T11:35:37.300Z,69.53
2018-04-11T11:37:30.286Z,71.26
2018-04-11T11:38:30.353Z,70.59
2018-04-11T11:40:23.879Z,70.01
2018-04-11T11:41:23.927Z,70.46
2018-04-11T11:43:16.944Z,71.33
2018-04-11T11:44:16.990Z,70.65
2018-04-11T11:46:09.986Z,70.84
2018-04-11T11:47:10.054Z,71.04
2018-04-11T11:49:03.075Z,72.00
2018-04-11T11:50:03.123Z,73.35
2018-04-11T11:51:56.122Z,73.15
2018-04-11T11:52:56.190Z,72.96
2018-04-11T11:54:49.210Z,74.50
2018-04-11T11:55:49.257Z,74.98
2018-04-11T11:57:42.256Z,73.35
2018-04-11T11:58:42.322Z,75.07
2018-04-11T12:00:35.346Z,74.21
2018-04-11T12:01:35.394Z,73.92
2018-04-11T12:03:28.408Z,74.98
2018-04-11T12:04:28.452Z,75.46
2018-04-11T12:06:21.449Z,74.30
2018-04-11T12:07:21.514Z,74.79
2018-04-11T12:09:14.530Z,74.79
2018-04-11T12:10:14.577Z,75.46
2018-04-11T12:12:07.571Z,75.07
2018-04-11T12:13:07.636Z,76.14
2018-04-11T12:15:00.654Z,76.04
2018-04-11T12:16:00.701Z,76.90
2018-04-11T12:17:53.702Z,75.52
2018-04-11T12:18:53.765Z,76.19
2018-04-11T12:20:46.780Z,76.19
2018-04-11T12:21:46.830Z,77.29
2018-04-11T12:23:39.840Z,77.83
2018-04-11T12:24:39.891Z,77.83
2018-04-11T12:26:32.884Z,78.30
2018-04-11T12:27:32.951Z,78.30
2018-04-11T12:29:25.964Z,77.73
2018-04-11T12:30:26.010Z,78.21
2018-04-11T12:32:19.009Z,77.34
2018-04-11T12:33:19.073Z,77.25
2018-04-11T12:35:12.091Z,77.09
2018-04-11T12:36:12.133Z,76.52
2018-04-11T12:38:05.139Z,77.00
2018-04-11T12:39:05.204Z,76.14
2018-04-11T12:40:59.774Z,76.42
2018-04-11T12:41:59.788Z,76.42
2018-04-11T12:43:52.799Z,77.29
2018-04-11T12:44:52.844Z,78.34
2018-04-11T12:46:45.838Z,80.04
2018-04-11T12:47:45.901Z,80.32
2018-04-11T12:49:38.923Z,81.28
2018-04-11T12:50:38.974Z,81.48
2018-04-11T12:52:31.965Z,81.15
2018-04-11T12:53:32.030Z,81.15
2018-04-11T12:55:25.044Z,81.34
2018-04-11T12:56:25.089Z,78.80
2018-04-11T12:58:18.088Z,79.82
2018-04-11T12:59:18.147Z,78.96
2018-04-11T13:01:11.195Z,79.72
2018-04-11T13:02:11.217Z,80.34
2018-04-11T13:04:04.236Z,80.47
2018-04-11T13:05:04.280Z,82.30
2018-04-11T13:06:57.283Z,80.66
2018-04-11T13:07:57.348Z,81.63
2018-04-11T13:09:50.367Z,81.38
2018-04-11T13:10:50.413Z,81.43
2018-04-11T13:12:43.407Z,81.63
2018-04-11T13:13:43.474Z,82.01
2018-04-11T13:15:36.484Z,81.57
2018-04-11T13:16:36.529Z,81.86
2018-04-11T13:18:29.593Z,81.28
2018-04-11T13:19:29.595Z,81.57
2018-04-11T13:21:22.612Z,81.42
2018-04-11T13:22:22.657Z,80.55
2018-04-11T13:24:15.675Z,80.55
2018-04-11T13:25:15.720Z,80.46
2018-04-11T13:27:08.721Z,79.60
2018-04-11T13:28:08.787Z,80.13
2018-04-11T13:30:01.805Z,79.65
2018-04-11T13:31:01.847Z,80.32
2018-04-11T13:32:54.843Z,79.94
2018-04-11T13:33:54.907Z,80.13
2018-04-11T13:35:47.932Z,80.55
2018-04-11T13:36:47.969Z,79.60
2018-04-11T13:38:40.965Z,79.02
2018-04-11T13:39:41.028Z,79.30
2018-04-11T13:41:34.048Z,78.92
2018-04-11T13:42:34.094Z,79.50
2018-04-11T13:44:27.110Z,78.38
2018-04-11T13:45:27.155Z,77.29
2018-04-11T13:47:20.151Z,78.44
2018-04-11T13:48:20.216Z,79.40
2018-04-11T13:50:13.231Z,78.73
2018-04-11T13:51:13.275Z,78.34
2018-04-11T13:53:06.273Z,77.63
2018-04-11T13:54:06.344Z,78.63
2018-04-11T13:55:59.371Z,78.34
2018-04-11T13:56:59.403Z,78.73
2018-04-11T13:58:52.402Z,79.46
2018-04-11T13:59:52.467Z,79.79
2018-04-11T14:01:45.493Z,79.50
2018-04-11T14:02:45.538Z,79.40
2018-04-11T14:04:38.553Z,79.84
2018-04-11T14:05:38.598Z,79.94
2018-04-11T14:07:31.596Z,80.66
2018-04-11T14:08:31.661Z,80.47
2018-04-11T14:10:24.681Z,80.96
2018-04-11T14:11:24.727Z,81.15
2018-04-11T14:13:17.723Z,81.24
2018-04-11T14:14:17.788Z,80.86
2018-04-11T14:16:10.806Z,80.47
2018-04-11T14:17:10.852Z,80.57
2018-04-11T14:19:03.855Z,80.57
2018-04-11T14:20:03.920Z,80.38
2018-04-11T14:21:56.930Z,80.66
2018-04-11T14:22:56.982Z,80.96
2018-04-11T14:24:50.007Z,81.19
2018-04-11T14:25:50.033Z,80.42
2018-04-11T14:27:43.036Z,80.42
2018-04-11T14:28:43.110Z,80.38
2018-04-11T14:30:36.120Z,80.09
2018-04-11T14:31:36.166Z,80.66
2018-04-11T14:33:29.165Z,81.28
2018-04-11T14:34:29.229Z,80.80
2018-04-11T14:36:22.249Z,79.65
2018-04-11T14:37:22.295Z,79.17
2018-04-11T14:39:15.294Z,75.13
2018-04-11T14:40:15.353Z,75.32
2018-04-11T14:42:08.371Z,73.50
2018-04-11T14:43:08.420Z,73.50
2018-04-11T14:45:01.435Z,74.17
2018-04-11T14:46:01.486Z,74.85
2018-04-11T14:47:54.476Z,73.21
2018-04-11T14:48:54.540Z,73.11
2018-04-11T14:50:47.561Z,73.69
2018-04-11T14:51:47.602Z,75.90
2018-04-11T14:53:40.600Z,72.25
2018-04-11T14:54:40.665Z,72.96
2018-04-11T14:56:33.708Z,70.52
2018-04-11T14:57:33.721Z,71.10
2018-04-11T14:59:26.721Z,70.43
2018-04-11T15:00:26.786Z,70.90
2018-04-11T15:02:19.795Z,72.44
2018-04-11T15:03:19.836Z,73.60
2018-04-11T15:05:13.362Z,73.02
2018-04-11T15:06:13.406Z,72.25
2018-04-11T15:08:06.403Z,73.02
2018-04-11T15:09:06.467Z,73.11
2018-04-11T15:10:59.488Z,73.79
2018-04-11T15:11:59.533Z,73.88
2018-04-11T15:13:52.534Z,75.90
2018-04-11T15:14:52.592Z,75.62
2018-04-11T15:16:45.661Z,76.86
2018-04-11T15:17:45.661Z,75.62
2018-04-11T15:19:38.653Z,74.85
2018-04-11T15:20:38.720Z,75.62
2018-04-11T15:22:31.731Z,74.94
2018-04-11T15:23:31.777Z,75.04
2018-04-11T15:25:24.788Z,77.11
2018-04-11T15:26:24.834Z,78.75
2018-04-11T15:28:17.827Z,80.19
2018-04-11T15:29:17.892Z,80.38
2018-04-11T15:31:10.907Z,80.38
2018-04-11T15:32:10.966Z,80.86
2018-04-11T15:34:03.965Z,81.82
2018-04-11T15:35:04.179Z,81.72
2018-04-11T15:36:57.081Z,81.34
2018-04-11T15:37:57.066Z,81.15
2018-04-11T15:39:50.109Z,80.96
2018-04-11T15:40:50.143Z,81.15
2018-04-11T15:42:43.290Z,81.53
2018-04-11T15:43:43.314Z,81.72
2018-04-11T15:45:36.250Z,81.24
2018-04-11T15:46:36.292Z,81.15
2018-04-11T15:48:29.298Z,80.13
2018-04-11T15:49:29.369Z,79.55
2018-04-11T15:51:22.378Z,79.94
2018-04-11T15:52:22.423Z,79.32
2018-04-11T15:54:15.439Z,79.61
2018-04-11T15:55:15.498Z,80.38
2018-04-11T15:57:08.558Z,79.75
2018-04-11T15:58:08.605Z,78.98
2018-04-11T16:00:01.691Z,78.30
2018-04-11T16:01:01.760Z,76.34
2018-04-11T16:02:54.693Z,77.21
2018-04-11T16:03:54.737Z,78.75
2018-04-11T16:05:48.263Z,78.36
2018-04-11T16:06:48.306Z,77.88
2018-04-11T16:08:41.307Z,78.17
2018-04-11T16:09:41.372Z,77.84
2018-04-11T16:11:34.390Z,79.19
2018-04-11T16:12:34.430Z,79.47
2018-04-11T16:14:27.430Z,79.57
2018-04-11T16:15:27.496Z,79.57
2018-04-11T16:17:20.511Z,80.53
2018-04-11T16:18:20.738Z,81.01
2018-04-11T16:20:13.547Z,79.82
2018-04-11T16:21:13.612Z,80.78
2018-04-11T16:23:06.625Z,81.16
2018-04-11T16:24:06.667Z,81.54
2018-04-11T16:25:59.682Z,81.35
2018-04-11T16:26:59.734Z,82.21
2018-04-11T16:28:52.736Z,83.08
2018-04-11T16:29:52.863Z,83.18
2018-04-11T16:31:45.800Z,82.27
2018-04-11T16:32:45.845Z,80.64
2018-04-11T16:34:38.843Z,81.08
2018-04-11T16:35:38.901Z,81.37
2018-04-11T16:37:31.931Z,82.71
2018-04-11T16:38:31.978Z,82.23
2018-04-11T16:40:24.969Z,82.71
2018-04-11T16:41:25.295Z,83.09
2018-04-11T16:43:18.045Z,82.71
2018-04-11T16:44:18.094Z,82.37
2018-04-11T16:46:11.105Z,83.42
2018-04-11T16:47:11.148Z,82.18
2018-04-11T16:49:04.145Z,83.42
2018-04-11T16:50:04.205Z,82.18
2018-04-11T16:51:57.222Z,83.04
2018-04-11T16:52:57.267Z,83.14
2018-04-11T16:54:50.260Z,83.61
2018-04-11T16:55:50.320Z,82.37
2018-04-11T16:57:43.337Z,83.52
2018-04-11T16:58:43.379Z,83.33
2018-04-11T17:00:36.893Z,83.23
2018-04-11T17:01:36.954Z,83.42
2018-04-11T17:03:30.003Z,83.52
2018-04-11T17:04:30.004Z,82.94
2018-04-11T17:06:23.015Z,83.04
2018-04-11T17:07:23.060Z,83.52
2018-04-11T17:09:16.055Z,83.61
2018-04-11T17:10:16.120Z,83.58
2018-04-11T17:12:09.139Z,84.09
2018-04-11T17:13:09.169Z,83.81
2018-04-11T17:15:02.166Z,83.38
2018-04-11T17:16:02.226Z,84.15
2018-04-11T17:17:55.238Z,83.67
2018-04-11T17:18:55.285Z,83.95
2018-04-11T17:20:48.275Z,84.15
2018-04-11T17:21:48.338Z,84.44
2018-04-11T17:23:41.351Z,83.95
2018-04-11T17:24:41.398Z,84.15
2018-04-11T17:26:34.409Z,84.15
2018-04-11T17:27:34.449Z,83.86
2018-04-11T17:29:27.442Z,84.20
2018-04-11T17:30:27.505Z,84.05
2018-04-11T17:32:20.515Z,83.76
2018-04-11T17:33:20.560Z,83.72
2018-04-11T17:35:13.551Z,84.05
2018-04-11T17:36:13.614Z,84.34
2018-04-11T17:38:06.627Z,84.25
2018-04-11T17:39:06.669Z,84.05
2018-04-11T17:40:59.662Z,84.15
2018-04-11T17:41:59.726Z,84.34
2018-04-11T17:43:52.739Z,83.95
2018-04-11T17:44:52.813Z,83.86
2018-04-11T17:46:45.796Z,84.30
2018-04-11T17:47:45.837Z,84.30
2018-04-11T17:49:38.833Z,84.58
2018-04-11T17:50:38.912Z,84.58
2018-04-11T17:52:31.911Z,84.30
2018-04-11T17:53:31.954Z,84.20
2018-04-11T17:55:24.948Z,84.20
2018-04-11T17:56:25.008Z,84.39
2018-04-11T17:58:18.045Z,83.72
2018-04-11T17:59:18.091Z,84.30
2018-04-11T18:01:11.079Z,84.30
2018-04-11T18:02:11.142Z,84.30
2018-04-11T18:04:04.165Z,84.49
2018-04-11T18:05:04.197Z,84.20
2018-04-11T18:06:57.209Z,84.55
2018-04-11T18:07:57.252Z,83.92
2018-04-11T18:09:50.248Z,84.06
2018-04-11T18:10:50.306Z,84.35
2018-04-11T18:12:43.314Z,83.63
2018-04-11T18:13:43.357Z,84.26
2018-04-11T18:15:36.354Z,83.78
2018-04-11T18:16:36.417Z,83.78
2018-04-11T18:18:29.425Z,83.78
2018-04-11T18:19:29.471Z,84.16
2018-04-11T18:21:22.457Z,83.78
2018-04-11T18:22:22.522Z,83.78
2018-04-11T18:24:15.538Z,83.68
2018-04-11T18:25:15.577Z,83.78
2018-04-11T18:27:08.592Z,83.68
2018-04-11T18:28:08.633Z,84.06
2018-04-11T18:30:01.626Z,83.68
2018-04-11T18:31:01.688Z,83.87
2018-04-11T18:32:54.698Z,83.68
2018-04-11T18:33:54.748Z,83.68